首页
METAR-TAF:

METAR-TAF

机场 :

托尔马切沃机场

新西伯利亚, 俄罗斯

纬度: 55-01N, 经度: 082-38E, 海拔: 111米

当前天气观测

该预报发布于19分钟前的05:00 UTC
风速10节,风向南转西南
温度 -8°C
湿度 79%
气压 1035 hPa
能見度: 7000
阴天层高于2400英尺, 积雨云.
小阵雪

METAR: UNNT 140500Z 20005MPS 7000 -SHSN OVC024CB M08/M11 Q1035 R25/490243 R16/490150 TEMPO 0800 +SHSN BKN010CB RMK QFE766/1021

时间: 12:19 (05:19 UTC)

预报

该预报发布于3小时和19分钟前的02:00 UTC
预报有效从14日的 03点(UTC)到 15日的 03点(UTC)
风速16节,风向南转西南,有时为29节阵风
能见度10公里或以上
多云层高于1500英尺, 积雨云.
小阵雪, 低吹雪
短暂存在
从 14日的 03点(UTC)到 14日的 06点(UTC)
能見度: 1500
多云层高于500英尺
多云层高于1100英尺, 积雨云.
阵雪
短暂存在
从 14日的 06点(UTC)到 15日的 03点(UTC)
能見度: 3100
多云层高于1100英尺, 积雨云.
小阵雪

TAF: UNNT 140200Z 1403/1503 21008G15MPS 9999 -SHSN DRSN BKN015CB TEMPO 1403/1406 1500 SHSN BKN005 BKN011CB TEMPO 1406/1503 3100 -SHSN BKN011CB

超过4000个机场的气象观测和天气预报(METAR&TAF报告)。

可查询的气象台以黄色和红色小点在地图上表示。

将鼠标移到小点上方,可查看气象台名称。

然后点击查看天气观测和预报。

如需切换地图:点击带黑十字的绿色按钮放大地图;点击带横线的绿色按钮缩小地图;或者点击绿色箭头查看邻近地区的地图。


METAR-TAF: